createdAt,value
2022-10-19T00:01:13.935Z,11.71
2022-10-19T00:03:45.707Z,11.63
2022-10-19T00:06:30.093Z,11.61
2022-10-19T00:09:07.939Z,11.48
2022-10-19T00:11:40.162Z,11.59
2022-10-19T00:14:14.043Z,11.66
2022-10-19T00:16:45.426Z,11.64
2022-10-19T00:19:18.181Z,11.52
2022-10-19T00:24:18.447Z,11.39
2022-10-19T00:26:48.511Z,11.24
2022-10-19T00:29:18.801Z,11.10
2022-10-19T00:31:50.994Z,11.10
2022-10-19T00:34:20.786Z,11.17
2022-10-19T00:36:50.743Z,11.15
2022-10-19T00:39:20.609Z,11.33
2022-10-19T00:41:50.657Z,11.31
2022-10-19T00:44:23.271Z,11.18
2022-10-19T00:46:53.736Z,11.16
2022-10-19T00:49:26.406Z,11.16
2022-10-19T00:51:59.312Z,11.01
2022-10-19T00:54:29.338Z,10.87
2022-10-19T00:57:00.654Z,10.98
2022-10-19T00:59:31.939Z,11.05
2022-10-19T01:02:04.169Z,11.00
2022-10-19T01:04:37.191Z,11.00
2022-10-19T01:07:08.746Z,11.03
2022-10-19T01:09:38.593Z,11.02
2022-10-19T01:12:36.566Z,10.99
2022-10-19T01:15:09.571Z,10.99
2022-10-19T01:17:42.397Z,10.90
2022-10-19T01:20:40.348Z,10.84
2022-10-19T01:23:34.157Z,11.04
2022-10-19T01:26:13.276Z,10.92
2022-10-19T01:28:58.121Z,10.86
2022-10-19T01:31:47.021Z,10.86
2022-10-19T01:34:22.213Z,11.15
2022-10-19T01:36:55.052Z,11.00
2022-10-19T01:39:27.740Z,11.00
2022-10-19T01:42:03.333Z,11.30
2022-10-19T01:44:42.544Z,11.30
2022-10-19T01:47:18.004Z,11.24
2022-10-19T01:50:11.526Z,11.24
2022-10-19T01:52:43.643Z,11.29
2022-10-19T01:55:15.759Z,11.24
2022-10-19T01:57:48.604Z,11.22
2022-10-19T02:00:20.029Z,11.31
2022-10-19T02:02:52.123Z,11.36
2022-10-19T02:05:25.297Z,11.28
2022-10-19T02:07:58.198Z,11.22
2022-10-19T02:10:30.024Z,11.37
2022-10-19T02:13:01.437Z,11.33
2022-10-19T02:15:33.801Z,11.42
2022-10-19T02:18:04.648Z,11.48
2022-10-19T02:20:37.209Z,11.48
2022-10-19T02:23:07.725Z,11.56
2022-10-19T02:25:37.862Z,11.43
2022-10-19T02:28:07.583Z,11.41
2022-10-19T02:30:37.439Z,11.43
2022-10-19T02:33:08.760Z,11.36
2022-10-19T02:35:38.312Z,11.43
2022-10-19T02:38:11.071Z,11.28
2022-10-19T02:40:43.652Z,11.28
2022-10-19T02:43:17.801Z,11.30
2022-10-19T02:46:02.305Z,11.37
2022-10-19T02:48:35.007Z,11.39
2022-10-19T02:51:04.879Z,11.25
2022-10-19T02:53:34.745Z,11.05
2022-10-19T02:56:04.807Z,11.19
2022-10-19T02:58:34.612Z,11.26
2022-10-19T03:01:05.428Z,11.07
2022-10-19T03:03:35.275Z,11.07
2022-10-19T03:06:06.396Z,10.98
2022-10-19T03:08:36.263Z,10.94
2022-10-19T03:11:06.711Z,10.97
2022-10-19T03:13:36.538Z,10.96
2022-10-19T03:16:12.558Z,10.90
2022-10-19T03:18:42.541Z,10.92
2022-10-19T03:21:14.123Z,10.75
2022-10-19T03:23:43.950Z,10.75
2022-10-19T03:26:18.062Z,10.69
2022-10-19T03:28:48.219Z,10.69
2022-10-19T03:31:17.956Z,10.79
2022-10-19T03:33:47.818Z,10.70
2022-10-19T03:36:29.318Z,10.56
2022-10-19T03:39:01.545Z,10.56
2022-10-19T03:41:33.764Z,10.79
2022-10-19T03:44:04.201Z,10.79
2022-10-19T03:46:35.500Z,10.68
2022-10-19T03:49:06.734Z,10.84
2022-10-19T03:51:37.348Z,10.71
2022-10-19T03:54:09.757Z,10.63
2022-10-19T03:56:39.931Z,10.67
2022-10-19T03:59:11.696Z,10.60
2022-10-19T04:01:44.620Z,10.55
2022-10-19T04:04:19.830Z,10.53
2022-10-19T04:06:53.138Z,10.42
2022-10-19T04:09:24.024Z,10.43
2022-10-19T04:11:53.824Z,10.49
2022-10-19T04:14:32.361Z,10.54
2022-10-19T04:16:57.212Z,10.52
2022-10-19T04:19:27.024Z,10.45
2022-10-19T04:21:57.092Z,10.46
2022-10-19T04:24:26.956Z,10.62
2022-10-19T04:26:57.585Z,10.53
2022-10-19T04:29:30.164Z,10.53
2022-10-19T04:31:59.851Z,10.56
2022-10-19T04:34:29.603Z,10.57
2022-10-19T04:36:59.958Z,10.66
2022-10-19T04:39:29.797Z,10.62
2022-10-19T04:41:59.870Z,10.54
2022-10-19T04:44:29.717Z,10.65
2022-10-19T04:46:59.507Z,10.55
2022-10-19T04:49:29.301Z,10.37
2022-10-19T04:51:59.100Z,10.53
2022-10-19T04:54:28.871Z,10.46
2022-10-19T04:56:58.710Z,10.38
2022-10-19T04:59:28.501Z,10.27
2022-10-19T05:01:58.366Z,10.34
2022-10-19T05:04:28.160Z,10.20
2022-10-19T05:06:57.954Z,10.31
2022-10-19T05:09:27.747Z,10.30
2022-10-19T05:11:57.771Z,10.28
2022-10-19T05:16:57.684Z,10.25
2022-10-19T05:19:27.533Z,10.26
2022-10-19T05:21:57.429Z,10.23
2022-10-19T05:24:27.234Z,10.14
2022-10-19T05:26:57.100Z,10.13
2022-10-19T05:29:26.951Z,10.06
2022-10-19T05:31:56.751Z,10.08
2022-10-19T05:34:26.997Z,10.05
2022-10-19T05:36:57.051Z,10.05
2022-10-19T05:39:27.803Z,10.08
2022-10-19T05:41:57.582Z,10.11
2022-10-19T05:44:27.421Z,10.09
2022-10-19T05:46:57.363Z,10.05
2022-10-19T05:49:27.311Z,10.24
2022-10-19T05:51:57.396Z,10.11
2022-10-19T05:54:28.594Z,10.09
2022-10-19T05:56:58.677Z,10.09
2022-10-19T05:59:28.450Z,10.11
2022-10-19T06:01:58.494Z,10.01
2022-10-19T06:04:28.319Z,10.01
2022-10-19T06:06:58.116Z,10.11
2022-10-19T06:09:28.119Z,10.13
2022-10-19T06:11:57.774Z,10.00
2022-10-19T06:14:27.613Z,9.91
2022-10-19T06:16:57.455Z,9.91
2022-10-19T06:19:27.241Z,10.13
2022-10-19T06:21:57.034Z,10.17
2022-10-19T06:24:26.897Z,10.10
2022-10-19T06:26:56.683Z,10.11
2022-10-19T06:29:26.827Z,10.13
2022-10-19T06:31:57.073Z,10.01
2022-10-19T06:34:26.917Z,9.99
2022-10-19T06:36:56.729Z,10.10
2022-10-19T06:39:26.856Z,10.19
2022-10-19T06:41:56.684Z,10.11
2022-10-19T06:44:27.344Z,10.18
2022-10-19T06:46:57.158Z,10.18
2022-10-19T06:49:26.944Z,10.18
2022-10-19T06:51:55.869Z,10.26
2022-10-19T06:54:26.092Z,10.15
2022-10-19T06:56:55.960Z,10.16
2022-10-19T06:59:26.116Z,10.21
2022-10-19T07:01:55.903Z,10.28
2022-10-19T07:04:25.763Z,10.23
2022-10-19T07:06:55.586Z,10.45
2022-10-19T07:09:25.397Z,10.36
2022-10-19T07:11:55.264Z,10.48
2022-10-19T07:14:28.655Z,10.55
2022-10-19T07:16:58.559Z,10.54
2022-10-19T07:19:29.682Z,10.65
2022-10-19T07:21:58.919Z,10.68
2022-10-19T07:24:28.872Z,10.60
2022-10-19T07:26:59.812Z,10.65
2022-10-19T07:29:29.692Z,10.74
2022-10-19T07:31:59.494Z,10.74
2022-10-19T07:34:29.558Z,10.73
2022-10-19T07:36:59.376Z,10.73
2022-10-19T07:39:29.296Z,10.83
2022-10-19T07:41:59.116Z,10.76
2022-10-19T07:44:28.984Z,10.76
2022-10-19T07:46:59.242Z,10.78
2022-10-19T07:49:28.984Z,10.83
2022-10-19T07:51:59.079Z,11.04
2022-10-19T07:54:29.379Z,11.02
2022-10-19T07:56:59.177Z,10.94
2022-10-19T07:59:29.118Z,11.04
2022-10-19T08:02:00.798Z,10.99
2022-10-19T08:04:59.072Z,11.01
2022-10-19T08:07:02.472Z,11.26
2022-10-19T08:09:53.401Z,11.33
2022-10-19T08:12:04.893Z,11.31
2022-10-19T08:14:34.285Z,11.44
2022-10-19T08:17:04.520Z,11.28
2022-10-19T08:19:34.369Z,11.40
2022-10-19T08:22:04.152Z,11.40
2022-10-19T08:24:34.184Z,11.62
2022-10-19T08:27:04.345Z,11.62
2022-10-19T08:29:34.154Z,11.64
2022-10-19T08:32:03.950Z,11.75
2022-10-19T08:34:34.200Z,11.96
2022-10-19T08:37:14.609Z,12.45
2022-10-19T08:39:36.311Z,12.68
2022-10-19T08:42:15.663Z,12.51
2022-10-19T08:45:00.348Z,12.37
2022-10-19T08:47:36.059Z,12.26
2022-10-19T08:50:21.969Z,12.21
2022-10-19T08:52:58.512Z,12.59
2022-10-19T08:55:37.395Z,12.97
2022-10-19T08:58:22.672Z,12.99
2022-10-19T09:01:04.465Z,12.87
2022-10-19T09:03:56.158Z,12.79
2022-10-19T09:06:39.980Z,12.78
2022-10-19T09:09:13.007Z,12.76
2022-10-19T09:11:49.070Z,12.68
2022-10-19T09:14:28.076Z,12.67
2022-10-19T09:17:00.906Z,12.66
2022-10-19T09:19:32.315Z,12.67
2022-10-19T09:22:10.924Z,12.58
2022-10-19T09:24:46.722Z,12.77
2022-10-19T09:27:25.000Z,12.93
2022-10-19T09:30:00.209Z,12.79
2022-10-19T09:32:39.179Z,12.74
2022-10-19T09:35:14.967Z,12.65
2022-10-19T09:37:47.772Z,12.58
2022-10-19T09:40:23.664Z,12.58
2022-10-19T09:43:01.460Z,12.52
2022-10-19T09:45:43.448Z,12.46
2022-10-19T09:48:31.130Z,12.48
2022-10-19T09:51:03.754Z,12.39
2022-10-19T09:53:33.785Z,12.35
2022-10-19T09:56:08.746Z,12.31
2022-10-19T09:58:41.620Z,12.54
2022-10-19T10:01:14.162Z,12.64
2022-10-19T10:03:43.958Z,12.83
2022-10-19T10:06:18.196Z,12.74
2022-10-19T10:08:50.887Z,12.81
2022-10-19T10:11:29.651Z,12.92
2022-10-19T10:14:02.999Z,12.94
2022-10-19T10:16:36.253Z,13.22
2022-10-19T10:19:09.983Z,13.00
2022-10-19T10:21:52.533Z,13.29
2022-10-19T10:24:24.334Z,13.96
2022-10-19T10:26:57.377Z,13.96
2022-10-19T10:29:30.237Z,13.83
2022-10-19T10:32:20.546Z,15.28
2022-10-19T10:35:04.918Z,15.20
2022-10-19T10:37:42.684Z,15.20
2022-10-19T10:40:32.426Z,14.26
2022-10-19T10:43:05.486Z,13.56
2022-10-19T10:45:44.330Z,13.44
2022-10-19T10:48:34.267Z,13.20
2022-10-19T10:51:05.619Z,13.42
2022-10-19T10:53:43.299Z,14.10
2022-10-19T10:56:21.300Z,14.81
2022-10-19T10:59:02.911Z,15.79
2022-10-19T11:01:38.899Z,15.79
2022-10-19T11:04:17.662Z,15.82
2022-10-19T11:07:01.137Z,15.71
2022-10-19T11:09:45.629Z,15.59
2022-10-19T11:12:18.045Z,15.15
2022-10-19T11:14:53.653Z,14.42
2022-10-19T11:17:26.457Z,13.68
2022-10-19T11:19:56.399Z,13.45
2022-10-19T11:22:46.138Z,13.04
2022-10-19T11:25:25.175Z,12.81
2022-10-19T11:28:30.366Z,12.87
2022-10-19T11:31:09.219Z,12.65
2022-10-19T11:33:45.687Z,12.44
2022-10-19T11:36:37.937Z,12.63
2022-10-19T11:39:22.685Z,12.45
2022-10-19T11:42:14.965Z,12.47
2022-10-19T11:45:22.389Z,12.39
2022-10-19T11:48:06.905Z,12.39
2022-10-19T11:50:40.023Z,12.43
2022-10-19T11:53:18.710Z,12.51
2022-10-19T11:56:25.245Z,12.50
2022-10-19T11:59:00.588Z,12.57
2022-10-19T12:01:48.203Z,12.40
2022-10-19T12:04:52.358Z,12.36
2022-10-19T12:07:49.283Z,12.18
2022-10-19T12:10:39.956Z,12.23
2022-10-19T12:13:12.794Z,12.21
2022-10-19T12:15:48.490Z,12.20
2022-10-19T12:18:30.262Z,12.17
2022-10-19T12:21:03.113Z,12.07
2022-10-19T12:23:44.633Z,12.06
2022-10-19T12:28:57.138Z,11.96
2022-10-19T12:31:28.762Z,12.01
2022-10-19T12:34:18.726Z,12.04
2022-10-19T12:36:57.350Z,12.15
2022-10-19T12:39:33.459Z,12.15
2022-10-19T12:42:18.365Z,12.29
2022-10-19T12:45:03.175Z,12.36
2022-10-19T12:47:34.132Z,12.37
2022-10-19T12:50:03.249Z,12.53
2022-10-19T12:52:52.047Z,12.44
2022-10-19T12:55:27.459Z,12.32
2022-10-19T12:58:08.708Z,12.18
2022-10-19T13:00:39.938Z,12.26
2022-10-19T13:03:10.353Z,12.13
2022-10-19T13:05:40.721Z,12.08
2022-10-19T13:08:17.971Z,12.05
2022-10-19T13:10:52.755Z,12.04
2022-10-19T13:13:41.261Z,12.04
2022-10-19T13:16:32.091Z,11.96
2022-10-19T13:19:05.991Z,11.88
2022-10-19T13:21:53.785Z,11.88
2022-10-19T13:24:29.340Z,11.78
2022-10-19T13:27:08.029Z,11.83
2022-10-19T13:29:46.236Z,11.88
2022-10-19T13:32:44.447Z,11.95
2022-10-19T13:35:32.660Z,11.95
2022-10-19T13:38:20.357Z,11.93
2022-10-19T13:40:53.263Z,11.82
2022-10-19T13:43:28.619Z,11.84
2022-10-19T13:46:13.278Z,12.03
2022-10-19T13:49:03.723Z,12.03
2022-10-19T13:51:51.523Z,12.09
2022-10-19T13:54:32.903Z,12.15
2022-10-19T13:57:24.664Z,12.07
2022-10-19T14:00:15.503Z,12.18
2022-10-19T14:03:11.682Z,12.31
2022-10-19T14:05:50.697Z,12.21
2022-10-19T14:08:34.945Z,12.14
2022-10-19T14:11:07.805Z,12.14
2022-10-19T14:13:37.608Z,12.00
2022-10-19T14:16:07.504Z,12.04
2022-10-19T14:18:38.141Z,11.96
2022-10-19T14:21:10.280Z,11.93
2022-10-19T14:23:41.175Z,11.76
2022-10-19T14:26:19.932Z,11.81
2022-10-19T14:28:55.070Z,11.84
2022-10-19T14:31:37.001Z,11.72
2022-10-19T14:34:09.365Z,11.99
2022-10-19T14:36:42.257Z,11.83
2022-10-19T14:39:26.726Z,11.94
2022-10-19T14:41:57.176Z,12.10
2022-10-19T14:44:37.689Z,12.08
2022-10-19T14:47:18.791Z,12.02
2022-10-19T14:49:49.143Z,12.14
2022-10-19T14:52:21.787Z,11.92
2022-10-19T14:54:54.287Z,11.92
2022-10-19T14:57:29.890Z,12.09
2022-10-19T15:00:02.911Z,11.78
2022-10-19T15:02:47.974Z,11.78
2022-10-19T15:05:29.571Z,11.77
2022-10-19T15:08:01.018Z,11.73
2022-10-19T15:10:35.727Z,11.76
2022-10-19T15:13:07.711Z,11.87
2022-10-19T15:15:37.845Z,11.76
2022-10-19T15:18:13.210Z,11.54
2022-10-19T15:20:54.947Z,11.42
2022-10-19T15:23:45.595Z,11.43
2022-10-19T15:26:21.579Z,11.44
2022-10-19T15:28:52.201Z,11.36
2022-10-19T15:31:30.056Z,11.28
2022-10-19T15:34:02.880Z,11.35
2022-10-19T15:36:34.096Z,11.21
2022-10-19T15:39:25.068Z,11.10
2022-10-19T15:41:40.650Z,11.12
2022-10-19T15:44:10.928Z,11.22
2022-10-19T15:46:52.338Z,11.13
2022-10-19T15:49:30.675Z,11.15
2022-10-19T15:52:00.462Z,11.19
2022-10-19T15:54:30.246Z,10.95
2022-10-19T15:57:00.153Z,10.90
2022-10-19T15:59:30.225Z,10.90
2022-10-19T16:02:00.093Z,10.83
2022-10-19T16:04:30.280Z,10.71
2022-10-19T16:07:00.158Z,10.63
2022-10-19T16:09:30.128Z,10.52
2022-10-19T16:11:59.828Z,10.52
2022-10-19T16:14:33.035Z,10.35
2022-10-19T16:17:01.344Z,10.27
2022-10-19T16:19:31.198Z,10.22
2022-10-19T16:22:00.988Z,10.17
2022-10-19T16:24:30.906Z,10.27
2022-10-19T16:27:00.990Z,10.14
2022-10-19T16:29:30.769Z,10.20
2022-10-19T16:32:01.046Z,10.27
2022-10-19T16:34:30.682Z,10.10
2022-10-19T16:37:02.742Z,10.25
2022-10-19T16:39:31.972Z,10.19
2022-10-19T16:42:01.800Z,10.21
2022-10-19T16:44:31.588Z,10.16
2022-10-19T16:47:01.422Z,10.20
2022-10-19T16:49:31.626Z,10.17
2022-10-19T16:52:01.677Z,10.25
2022-10-19T16:54:32.738Z,10.21
2022-10-19T16:57:07.170Z,10.28
2022-10-19T16:59:34.085Z,10.34
2022-10-19T17:02:04.139Z,10.38
2022-10-19T17:04:34.293Z,10.34
2022-10-19T17:07:04.623Z,10.34
2022-10-19T17:09:41.775Z,10.35
2022-10-19T17:12:07.313Z,10.48
2022-10-19T17:14:38.678Z,10.34
2022-10-19T17:17:08.706Z,10.43
2022-10-19T17:19:40.287Z,10.42
2022-10-19T17:22:10.082Z,10.62
2022-10-19T17:24:40.140Z,10.41
2022-10-19T17:27:09.699Z,10.37
2022-10-19T17:29:39.797Z,10.39
2022-10-19T17:32:09.333Z,10.33
2022-10-19T17:34:39.290Z,10.27
2022-10-19T17:37:08.881Z,10.26
2022-10-19T17:39:38.680Z,10.15
2022-10-19T17:42:08.169Z,10.15
2022-10-19T17:44:38.263Z,10.30
2022-10-19T17:47:08.049Z,10.26
2022-10-19T17:49:38.543Z,10.20
2022-10-19T17:52:08.101Z,10.12
2022-10-19T17:54:48.604Z,10.05
2022-10-19T17:57:10.178Z,9.82
2022-10-19T17:59:52.155Z,9.82
2022-10-19T18:02:11.793Z,9.71
2022-10-19T18:04:41.624Z,9.76
2022-10-19T18:07:11.425Z,9.81
2022-10-19T18:09:42.340Z,9.62
2022-10-19T18:12:13.377Z,9.44
2022-10-19T18:14:44.616Z,9.28
2022-10-19T18:17:14.118Z,9.18
2022-10-19T18:19:43.910Z,9.08
2022-10-19T18:22:13.572Z,8.94
2022-10-19T18:24:43.659Z,8.83
2022-10-19T18:27:14.004Z,8.74
2022-10-19T18:29:43.773Z,8.78
2022-10-19T18:32:15.290Z,8.86
2022-10-19T18:34:45.081Z,8.88
2022-10-19T18:37:14.624Z,8.55
2022-10-19T18:39:44.414Z,8.41
2022-10-19T18:42:16.441Z,8.18
2022-10-19T18:44:47.295Z,8.18
2022-10-19T18:47:17.093Z,8.18
2022-10-19T18:49:46.752Z,7.99
2022-10-19T18:52:16.516Z,7.89
2022-10-19T18:54:46.296Z,7.94
2022-10-19T18:57:16.108Z,7.94
2022-10-19T18:59:48.460Z,7.78
2022-10-19T19:02:22.738Z,7.66
2022-10-19T19:04:49.479Z,7.68
2022-10-19T19:07:19.513Z,7.86
2022-10-19T19:09:51.431Z,7.82
2022-10-19T19:12:22.460Z,7.63
2022-10-19T19:14:52.306Z,7.67
2022-10-19T19:17:22.084Z,7.68
2022-10-19T19:19:51.874Z,7.59
2022-10-19T19:22:21.366Z,7.59
2022-10-19T19:24:51.516Z,7.74
2022-10-19T19:27:22.939Z,7.70
2022-10-19T19:29:57.904Z,7.64
2022-10-19T19:32:27.812Z,7.54
2022-10-19T19:34:57.606Z,7.43
2022-10-19T19:37:27.472Z,7.38
2022-10-19T19:39:58.270Z,7.28
2022-10-19T19:42:28.127Z,7.16
2022-10-19T19:44:57.931Z,7.14
2022-10-19T19:47:27.721Z,7.15
2022-10-19T19:49:57.517Z,7.10
2022-10-19T19:52:27.301Z,7.07
2022-10-19T19:54:57.511Z,7.03
2022-10-19T19:57:27.494Z,6.93
2022-10-19T19:59:57.311Z,6.86
2022-10-19T20:02:27.223Z,6.75
2022-10-19T20:04:57.014Z,6.75
2022-10-19T20:07:27.074Z,6.63
2022-10-19T20:09:57.720Z,6.60
2022-10-19T20:12:27.343Z,6.56
2022-10-19T20:14:57.132Z,6.41
2022-10-19T20:17:26.915Z,6.41
2022-10-19T20:19:56.851Z,6.38
2022-10-19T20:22:26.676Z,6.34
2022-10-19T20:24:56.560Z,6.32
2022-10-19T20:27:26.550Z,6.15
2022-10-19T20:29:57.954Z,6.16
2022-10-19T20:32:29.171Z,6.08
2022-10-19T20:34:59.045Z,6.04
2022-10-19T20:37:30.096Z,5.98
2022-10-19T20:40:01.437Z,5.89
2022-10-19T20:42:32.051Z,5.80
2022-10-19T20:45:02.394Z,5.80
2022-10-19T20:47:32.098Z,5.79
2022-10-19T20:52:31.752Z,5.65
2022-10-19T20:55:01.630Z,5.63
2022-10-19T20:57:31.958Z,5.56
2022-10-19T21:00:01.740Z,5.49
2022-10-19T21:02:31.634Z,5.43
2022-10-19T21:05:01.450Z,5.38
2022-10-19T21:07:31.519Z,5.34
2022-10-19T21:10:01.396Z,5.24
2022-10-19T21:12:31.169Z,5.16
2022-10-19T21:15:00.961Z,5.16
2022-10-19T21:20:00.545Z,5.09
2022-10-19T21:22:33.315Z,5.01
2022-10-19T21:25:02.078Z,5.01
2022-10-19T21:27:32.392Z,5.03
2022-10-19T21:30:02.673Z,5.03
2022-10-19T21:32:32.457Z,5.04
2022-10-19T21:35:02.327Z,5.05
2022-10-19T21:37:32.641Z,5.11
2022-10-19T21:40:03.519Z,5.24
2022-10-19T21:42:33.431Z,5.24
2022-10-19T21:45:25.198Z,5.28
2022-10-19T21:47:36.189Z,5.35
2022-10-19T21:50:07.678Z,5.39
2022-10-19T21:52:37.393Z,5.38
2022-10-19T21:55:07.599Z,5.38
2022-10-19T21:57:38.070Z,5.39
2022-10-19T22:00:09.052Z,5.43
2022-10-19T22:02:40.530Z,5.48
2022-10-19T22:05:10.469Z,5.55
2022-10-19T22:07:40.550Z,5.56
2022-10-19T22:10:10.787Z,5.61
2022-10-19T22:12:40.968Z,5.75
2022-10-19T22:15:11.690Z,5.81
2022-10-19T22:17:41.467Z,5.88
2022-10-19T22:20:11.584Z,5.93
2022-10-19T22:22:41.363Z,5.95
2022-10-19T22:25:11.185Z,6.00
2022-10-19T22:27:40.974Z,6.05
2022-10-19T22:30:10.990Z,6.04
2022-10-19T22:32:40.842Z,5.89
2022-10-19T22:35:10.735Z,5.96
2022-10-19T22:37:40.510Z,6.02
2022-10-19T22:40:10.827Z,6.04
2022-10-19T22:42:40.622Z,6.05
2022-10-19T22:45:10.578Z,5.89
2022-10-19T22:47:40.363Z,5.80
2022-10-19T22:50:11.836Z,5.89
2022-10-19T22:52:42.165Z,5.91
2022-10-19T22:55:11.810Z,5.90
2022-10-19T22:57:41.586Z,5.83
2022-10-19T23:00:12.146Z,5.84
2022-10-19T23:02:42.005Z,5.79
2022-10-19T23:05:11.769Z,5.83
2022-10-19T23:07:41.598Z,5.83
2022-10-19T23:10:11.700Z,5.65
2022-10-19T23:12:41.564Z,5.50
2022-10-19T23:15:11.649Z,5.46
2022-10-19T23:17:41.502Z,5.18
2022-10-19T23:20:12.055Z,5.22
2022-10-19T23:22:42.103Z,5.15
2022-10-19T23:25:11.599Z,5.04
2022-10-19T23:27:41.395Z,4.98
2022-10-19T23:30:11.789Z,4.92
2022-10-19T23:32:41.960Z,4.82
2022-10-19T23:35:11.637Z,4.79
2022-10-19T23:37:41.699Z,4.89
2022-10-19T23:40:12.264Z,4.63
2022-10-19T23:42:42.402Z,4.54
2022-10-19T23:45:13.153Z,4.47
2022-10-19T23:47:42.943Z,4.40
2022-10-19T23:50:12.461Z,4.31
2022-10-19T23:52:42.326Z,4.27
2022-10-19T23:55:11.880Z,4.22
2022-10-19T23:57:41.648Z,4.18
